Time;durP1;ratioP1;P1;durP2;ratioP2;P2;SDS_P1;SDS_P2;PMS_P1;PMS_P2;Temp;Humidity;BMP_temperature;BMP_pressure;BME280_temperature;BME280_humidity;BME280_pressure;Samples;Min_cycle;Max_cycle;Signal;HPM_P1;HPM_P2
2023/07/22 00:01:14;;;;;;;10.02;2.83;;;;;;;16.78;100.00;100272.22;4986198;28;20267;-79
2023/07/22 00:03:41;;;;;;;8.48;2.42;;;;;;;16.74;100.00;100267.84;4982210;28;20240;-79
2023/07/22 00:06:09;;;;;;;8.05;2.22;;;;;;;16.81;100.00;100274.84;4987607;28;20244;-79
2023/07/22 00:08:38;;;;;;;8.25;2.20;;;;;;;16.71;100.00;100285.72;4980425;28;20232;-79
2023/07/22 02:17:48;;;;;;;15.48;3.58;;;;;;;15.99;100.00;100605.19;4954984;23;20265;-80
2023/07/22 02:20:14;;;;;;;8.30;2.15;;;;;;;15.94;100.00;100624.81;4929697;28;20242;-81
2023/07/22 02:22:41;;;;;;;9.75;2.95;;;;;;;15.93;100.00;100644.38;4942172;28;20241;-86
2023/07/22 02:25:10;;;;;;;11.05;2.80;;;;;;;15.83;100.00;100648.91;4947414;28;20241;-81
2023/07/22 02:27:38;;;;;;;40.65;8.07;;;;;;;15.86;100.00;100658.69;5039623;23;20222;-80
2023/07/22 02:30:09;;;;;;;12.27;3.15;;;;;;;15.83;100.00;100662.25;4932405;28;20229;-82
2023/07/22 02:32:40;;;;;;;16.08;3.75;;;;;;;15.88;100.00;100662.22;4965136;28;20237;-82
2023/07/22 02:35:08;;;;;;;12.63;3.00;;;;;;;15.81;100.00;100663.16;4972802;28;20248;-82
2023/07/22 02:37:37;;;;;;;16.65;4.07;;;;;;;15.76;100.00;100671.22;4981341;28;20232;-80
2023/07/22 02:40:07;;;;;;;12.70;3.05;;;;;;;15.72;100.00;100671.25;4963659;28;20253;-80
2023/07/22 02:42:37;;;;;;;10.88;2.58;;;;;;;15.65;100.00;100678.41;4981264;28;20228;-80
2023/07/22 02:45:10;;;;;;;12.63;3.00;;;;;;;15.68;100.00;100668.59;4974724;28;20787;-79
2023/07/22 02:47:37;;;;;;;13.60;3.05;;;;;;;15.78;100.00;100660.53;4975141;28;20327;-79
2023/07/22 02:50:06;;;;;;;14.57;3.50;;;;;;;15.80;100.00;100654.28;4970929;28;20239;-79
2023/07/22 02:52:33;;;;;;;17.30;4.00;;;;;;;15.86;100.00;100656.00;4979039;28;20305;-79
2023/07/22 02:55:14;;;;;;;27.45;5.15;;;;;;;15.95;100.00;100650.59;4972693;28;20236;-79
2023/07/22 02:57:42;;;;;;;13.68;3.45;;;;;;;15.87;100.00;100650.66;4971130;28;20259;-80
2023/07/22 03:00:10;;;;;;;12.55;3.50;;;;;;;15.81;100.00;100640.06;4977121;28;20236;-79
2023/07/22 03:02:38;;;;;;;10.85;2.85;;;;;;;15.83;100.00;100640.91;4977112;28;20315;-79
2023/07/22 03:05:07;;;;;;;12.18;3.05;;;;;;;15.76;100.00;100641.88;4969413;28;20730;-79
2023/07/22 03:07:35;;;;;;;17.25;4.90;;;;;;;15.75;100.00;100632.09;4973320;28;20260;-79
2023/07/22 03:10:02;;;;;;;9.93;2.78;;;;;;;15.81;100.00;100612.50;4948810;28;20302;-79
2023/07/22 03:12:29;;;;;;;10.45;2.55;;;;;;;15.77;100.00;100592.97;4978201;28;20328;-79
2023/07/22 03:14:56;;;;;;;48.28;8.65;;;;;;;15.77;100.00;100590.31;4969031;28;20225;-79
2023/07/22 03:17:22;;;;;;;14.25;3.72;;;;;;;15.81;100.00;100583.16;4976822;28;20217;-78
2023/07/22 03:19:49;;;;;;;38.10;7.70;;;;;;;15.92;100.00;100599.94;4970300;28;20586;-79
2023/07/22 03:22:17;;;;;;;9.95;2.60;;;;;;;15.89;100.00;100595.53;4979918;28;20232;-79
2023/07/22 03:24:44;;;;;;;23.15;4.13;;;;;;;15.78;100.00;100616.09;4973813;28;20244;-78
2023/07/22 03:27:11;;;;;;;9.20;2.28;;;;;;;15.75;100.00;100600.09;4981046;28;20331;-80
2023/07/22 03:29:38;;;;;;;10.43;2.75;;;;;;;15.82;100.00;100598.28;4959687;28;20226;-81
2023/07/22 03:32:06;;;;;;;14.25;3.55;;;;;;;15.82;100.00;100599.16;4976360;28;20306;-82
2023/07/22 03:34:33;;;;;;;13.60;3.25;;;;;;;15.70;100.00;100601.94;4987105;28;20228;-82
2023/07/22 03:36:59;;;;;;;54.17;8.52;;;;;;;15.81;100.00;100623.16;4979829;28;20221;-81
2023/07/22 03:39:26;;;;;;;12.25;3.08;;;;;;;15.81;100.00;100624.06;4986397;28;20225;-81
2023/07/22 03:41:53;;;;;;;54.42;8.90;;;;;;;15.76;100.00;100633.00;4979302;28;20239;-81
2023/07/22 03:44:19;;;;;;;9.88;2.50;;;;;;;15.82;100.00;100648.94;4984921;28;20220;-82
2023/07/22 03:46:46;;;;;;;35.55;6.18;;;;;;;15.84;100.00;100652.47;4979711;28;20220;-81
2023/07/22 03:49:13;;;;;;;13.05;3.30;;;;;;;15.72;100.00;100656.13;4984512;28;20292;-81
2023/07/22 03:51:39;;;;;;;14.73;3.55;;;;;;;15.59;100.00;100651.75;4981654;28;20221;-81
2023/07/22 03:54:06;;;;;;;11.30;3.25;;;;;;;15.64;100.00;100648.19;4980461;28;20238;-81
2023/07/22 03:56:33;;;;;;;11.13;2.67;;;;;;;15.68;100.00;100660.59;4981281;28;20224;-81
2023/07/22 03:59:00;;;;;;;20.92;4.60;;;;;;;15.65;100.00;100676.63;4978975;28;20339;-81
2023/07/22 04:01:26;;;;;;;13.13;3.20;;;;;;;15.73;100.00;100681.91;4983491;28;20236;-81
2023/07/22 04:03:53;;;;;;;54.95;8.95;;;;;;;15.77;100.00;100683.63;4980379;28;20243;-81
2023/07/22 04:06:20;;;;;;;13.88;3.33;;;;;;;15.63;100.00;100673.09;4969560;28;20236;-80
2023/07/22 04:08:47;;;;;;;62.95;11.38;;;;;;;15.51;100.00;100662.44;4961311;28;20216;-80
2023/07/22 04:11:14;;;;;;;11.65;2.78;;;;;;;15.44;100.00;100678.50;4978724;28;20242;-78
2023/07/22 04:13:40;;;;;;;14.13;3.58;;;;;;;15.44;100.00;100673.16;4969623;28;20225;-79
2023/07/22 04:16:10;;;;;;;14.93;3.75;;;;;;;15.49;100.00;100668.69;4976164;28;20247;-80
2023/07/22 04:18:37;;;;;;;14.05;3.63;;;;;;;15.47;100.00;100663.38;4979369;28;20251;-79
2023/07/22 04:21:04;;;;;;;13.75;3.55;;;;;;;15.48;100.00;100669.59;4972464;28;20235;-80
2023/07/22 04:23:33;;;;;;;19.98;4.75;;;;;;;15.57;100.00;100666.84;4966479;28;20288;-80
2023/07/22 04:26:04;;;;;;;54.50;8.88;;;;;;;15.54;100.00;100666.88;4985631;28;20235;-79
2023/07/22 04:28:34;;;;;;;13.35;3.15;;;;;;;15.55;100.00;100653.53;4997402;28;20223;-80
2023/07/22 04:31:01;;;;;;;20.45;4.32;;;;;;;15.56;100.00;100667.75;4987787;28;20243;-80
2023/07/22 04:33:28;;;;;;;18.42;4.85;;;;;;;15.54;100.00;100672.22;4993628;28;20604;-80
2023/07/22 04:35:57;;;;;;;63.10;12.15;;;;;;;15.44;100.00;100666.06;4987149;28;20354;-79
2023/07/22 04:38:24;;;;;;;10.98;2.85;;;;;;;15.48;100.00;100666.91;4974927;28;20230;-79
2023/07/22 04:40:51;;;;;;;49.28;8.25;;;;;;;15.53;100.00;100670.44;4993789;28;20219;-78
2023/07/22 04:43:17;;;;;;;11.43;2.88;;;;;;;15.50;100.00;100671.34;4989907;28;20250;-79
2023/07/22 04:45:48;;;;;;;62.05;11.45;;;;;;;15.50;100.00;100671.34;4970610;28;20228;-79
2023/07/22 04:48:17;;;;;;;9.98;2.55;;;;;;;15.44;100.00;100667.84;4996398;28;20227;-79
2023/07/22 04:50:45;;;;;;;29.35;5.65;;;;;;;15.56;100.00;100687.28;4990771;28;20220;-79
2023/07/22 04:53:15;;;;;;;16.55;4.05;;;;;;;15.65;100.00;100686.41;4983824;28;20295;-81
2023/07/22 04:55:42;;;;;;;13.50;3.42;;;;;;;15.56;100.00;100694.41;5002115;28;20251;-81
2023/07/22 04:58:10;;;;;;;11.90;3.05;;;;;;;15.63;100.00;100701.53;5005314;28;20228;-81
2023/07/22 05:00:37;;;;;;;11.50;2.97;;;;;;;15.57;100.00;100704.16;4987248;28;20263;-80
2023/07/22 05:03:05;;;;;;;11.27;2.95;;;;;;;15.58;100.00;100708.66;4993050;28;20278;-80
2023/07/22 05:05:32;;;;;;;17.40;4.40;;;;;;;15.55;100.00;100720.19;4997740;28;20306;-79
2023/07/22 05:07:59;;;;;;;55.70;9.50;;;;;;;15.55;100.00;100730.84;4990736;28;20271;-80
2023/07/22 05:10:28;;;;;;;12.20;3.08;;;;;;;15.61;100.00;100738.88;5001072;28;20232;-80
2023/07/22 05:12:57;;;;;;;56.05;10.43;;;;;;;15.61;100.00;100740.66;4988898;28;20572;-79
2023/07/22 05:15:23;;;;;;;14.30;3.63;;;;;;;15.61;100.00;100745.97;4999433;28;20322;-78
2023/07/22 05:17:51;;;;;;;56.88;9.88;;;;;;;15.51;100.00;100741.53;4994288;28;20220;-79
2023/07/22 05:20:18;;;;;;;19.05;4.68;;;;;;;15.53;100.00;100753.97;4998277;28;20229;-79
2023/07/22 05:22:44;;;;;;;26.45;5.93;;;;;;;15.49;100.00;100762.88;4973996;28;20331;-79
2023/07/22 05:25:11;;;;;;;9.73;2.45;;;;;;;15.53;100.00;100759.28;4988554;28;20238;-79
2023/07/22 05:27:39;;;;;;;20.95;5.22;;;;;;;15.63;100.00;100773.50;4979231;28;20228;-79
2023/07/22 05:30:07;;;;;;;17.75;4.35;;;;;;;15.55;100.00;100776.16;4989926;28;20236;-80
2023/07/22 05:32:52;;;;;;;26.15;5.45;;;;;;;15.62;100.00;100785.97;4995042;28;20227;-77
2023/07/22 05:35:19;;;;;;;16.85;4.25;;;;;;;15.66;100.00;100790.38;4982006;28;20232;-77
2023/07/22 05:37:46;;;;;;;38.85;7.40;;;;;;;15.62;100.00;100788.63;4994004;28;20323;-77
2023/07/22 05:40:13;;;;;;;12.43;3.10;;;;;;;15.74;100.00;100806.31;4999548;28;20224;-77
2023/07/22 05:42:41;;;;;;;14.30;3.58;;;;;;;15.81;100.00;100807.16;4991457;28;20235;-77
2023/07/22 05:45:08;;;;;;;13.48;3.25;;;;;;;15.91;100.00;100816.88;4978530;28;20248;-78
2023/07/22 05:47:35;;;;;;;18.58;4.22;;;;;;;15.93;100.00;100815.97;4992657;28;20223;-78
2023/07/22 05:50:03;;;;;;;11.50;2.85;;;;;;;15.89;100.00;100818.69;5002626;28;20238;-78
2023/07/22 05:52:30;;;;;;;13.75;3.15;;;;;;;15.81;100.00;100797.38;5002518;28;20231;-77
2023/07/22 05:54:57;;;;;;;22.95;5.22;;;;;;;15.81;100.00;100793.84;5001167;28;20273;-77
2023/07/22 05:57:24;;;;;;;10.23;2.58;;;;;;;15.82;100.00;100792.94;4988484;28;20223;-78
2023/07/22 05:59:51;;;;;;;19.38;4.55;;;;;;;15.84;100.00;100802.72;4992310;28;20231;-78
2023/07/22 06:02:34;;;;;;;23.05;5.40;;;;;;;15.90;100.00;100808.00;4989378;28;20247;-76
2023/07/22 06:05:01;;;;;;;20.35;4.75;;;;;;;15.81;100.00;100796.50;4973589;28;20419;-77
2023/07/22 06:07:28;;;;;;;21.80;5.18;;;;;;;15.89;100.00;100811.56;5000788;28;20255;-77
2023/07/22 06:09:54;;;;;;;15.10;3.72;;;;;;;15.91;100.00;100809.78;4993242;28;20318;-78
2023/07/22 06:12:21;;;;;;;9.32;2.30;;;;;;;15.97;100.00;100827.50;4991829;28;20227;-78
2023/07/22 06:14:48;;;;;;;17.83;4.38;;;;;;;16.05;100.00;100830.13;4949895;28;20294;-77
2023/07/22 06:17:15;;;;;;;10.30;2.60;;;;;;;15.97;100.00;100830.19;5001687;28;20266;-78
2023/07/22 06:19:41;;;;;;;13.70;3.28;;;;;;;15.97;100.00;100828.41;4994799;28;20236;-80
2023/07/22 06:22:08;;;;;;;10.02;2.45;;;;;;;15.99;100.00;100823.94;4979183;28;20303;-79
2023/07/22 06:24:35;;;;;;;11.48;2.80;;;;;;;15.94;100.00;100822.19;4997652;28;20259;-78
2023/07/22 06:27:02;;;;;;;12.43;3.13;;;;;;;16.07;100.00;100836.34;4989997;28;20243;-78
2023/07/22 06:29:29;;;;;;;11.15;2.67;;;;;;;16.12;100.00;100843.41;4994205;28;20710;-76
2023/07/22 06:31:55;;;;;;;26.33;6.55;;;;;;;16.07;100.00;100845.22;4989068;28;20236;-77
2023/07/22 06:34:22;;;;;;;10.25;2.47;;;;;;;16.22;100.00;100855.78;5001380;28;20250;-77
2023/07/22 06:36:48;;;;;;;20.15;4.63;;;;;;;16.26;100.00;100854.88;4996674;28;20242;-77
2023/07/22 06:39:15;;;;;;;10.40;2.45;;;;;;;16.30;100.00;100859.28;4991246;28;20229;-77
2023/07/22 06:41:42;;;;;;;18.55;4.32;;;;;;;16.36;100.00;100854.81;4988090;28;20235;-77
2023/07/22 06:44:08;;;;;;;16.42;4.00;;;;;;;16.42;100.00;100857.41;4987015;28;20227;-78
2023/07/22 06:46:35;;;;;;;22.35;5.13;;;;;;;16.46;100.00;100860.06;4986735;28;20239;-77
2023/07/22 06:49:02;;;;;;;13.45;3.17;;;;;;;16.42;100.00;100860.97;4984714;28;20311;-78
2023/07/22 06:51:29;;;;;;;11.40;2.85;;;;;;;16.55;100.00;100867.09;4999951;28;20231;-77
2023/07/22 06:53:56;;;;;;;22.65;5.13;;;;;;;16.57;100.00;100866.19;4993827;28;20242;-77
2023/07/22 06:56:22;;;;;;;13.73;3.20;;;;;;;16.63;100.00;100863.47;4995826;28;20227;-78
2023/07/22 06:58:51;;;;;;;20.55;4.93;;;;;;;16.60;100.00;100865.28;4983934;28;20238;-78
2023/07/22 07:01:17;;;;;;;13.63;3.33;;;;;;;16.71;100.00;100867.88;4988118;28;20231;-77
2023/07/22 07:03:44;;;;;;;20.40;4.60;;;;;;;16.83;100.00;100876.66;4988362;28;20225;-77
2023/07/22 07:06:11;;;;;;;18.00;4.25;;;;;;;16.94;100.00;100869.47;4992551;28;20318;-77
2023/07/22 07:08:38;;;;;;;12.05;2.85;;;;;;;17.17;100.00;100879.91;4997551;28;20226;-78
2023/07/22 07:11:05;;;;;;;15.82;3.53;;;;;;;17.27;100.00;100875.34;4990748;28;20235;-80
2023/07/22 07:13:31;;;;;;;10.20;2.45;;;;;;;17.24;100.00;100862.00;5003245;28;20220;-79
2023/07/22 07:16:25;;;;;;;29.80;6.75;;;;;;;17.36;100.00;100869.91;4995375;28;20723;-79
2023/07/22 07:18:54;;;;;;;50.97;9.02;;;;;;;17.55;100.00;100867.88;4998119;28;20306;-80
2023/07/22 07:21:22;;;;;;;10.02;2.67;;;;;;;17.67;100.00;100858.84;4998093;28;20231;-80
2023/07/22 07:23:49;;;;;;;77.78;16.27;;;;;;;17.73;100.00;100850.72;4950773;28;20989;-80
2023/07/22 07:26:20;;;;;;;10.60;2.67;;;;;;;17.79;100.00;100826.56;4977528;28;20235;-79
2023/07/22 07:28:49;;;;;;;57.95;10.18;;;;;;;18.09;100.00;100838.63;4972304;28;20224;-79
2023/07/22 07:31:15;;;;;;;13.70;3.20;;;;;;;18.13;100.00;100821.59;4989556;28;20282;-79
2023/07/22 07:33:42;;;;;;;16.67;3.80;;;;;;;18.31;100.00;100825.81;4996672;28;20227;-80
2023/07/22 07:36:09;;;;;;;14.23;3.40;;;;;;;18.54;100.00;100826.31;4997056;28;20604;-80
2023/07/22 07:38:36;;;;;;;17.23;4.40;;;;;;;18.63;100.00;100798.50;4980100;28;20238;-78
2023/07/22 07:41:11;;;;;;;21.77;5.15;;;;;;;18.61;100.00;100774.41;4976685;28;20285;-79
2023/07/22 07:43:39;;;;;;;10.98;2.85;;;;;;;18.69;100.00;100769.81;4977526;28;20223;-80
2023/07/22 07:46:17;;;;;;;13.73;3.47;;;;;;;18.84;100.00;100768.63;4997597;28;20236;-79
2023/07/22 07:48:46;;;;;;;41.42;8.13;;;;;;;18.90;100.00;100744.38;4996775;28;20227;-81
2023/07/22 07:51:21;;;;;;;21.30;5.03;;;;;;;19.05;100.00;100749.44;5001228;28;20242;-81
2023/07/22 07:53:49;;;;;;;56.92;9.73;;;;;;;19.27;100.00;100746.28;4998594;28;20265;-80
2023/07/22 07:56:17;;;;;;;11.68;3.13;;;;;;;19.32;100.00;100728.31;5004604;28;20235;-80
2023/07/22 07:58:45;;;;;;;17.25;3.80;;;;;;;19.52;100.00;100715.38;4999632;28;20311;-80
2023/07/22 08:01:12;;;;;;;22.50;5.47;;;;;;;19.57;100.00;100686.66;4993723;28;20704;-80
2023/07/22 08:03:41;;;;;;;11.13;3.08;;;;;;;19.83;100.00;100694.06;5010971;28;20228;-80
2023/07/22 08:06:10;;;;;;;17.00;4.55;;;;;;;19.73;100.00;100653.16;4995256;28;20248;-81
2023/07/22 08:08:37;;;;;;;9.65;2.80;;;;;;;19.78;100.00;100643.19;5008577;28;20227;-80
2023/07/22 08:11:13;;;;;;;13.25;3.42;;;;;;;19.72;100.00;100611.16;4997954;28;20291;-80
2023/07/22 08:13:41;;;;;;;14.73;3.88;;;;;;;19.49;100.00;100582.16;5009183;28;20294;-81
2023/07/22 08:16:09;;;;;;;10.30;2.78;;;;;;;19.44;100.00;100557.25;4979793;28;20235;-80
2023/07/22 08:18:37;;;;;;;12.13;3.08;;;;;;;19.54;100.00;100570.50;5004156;28;20242;-79
2023/07/22 08:21:07;;;;;;;14.57;4.20;;;;;;;19.49;100.00;100541.94;5003134;28;20258;-79
2023/07/22 08:23:34;;;;;;;10.32;2.88;;;;;;;19.47;100.00;100542.88;5005207;28;20220;-79
2023/07/22 08:26:01;;;;;;;15.07;3.60;;;;;;;19.77;100.00;100541.25;4999637;28;22090;-78
2023/07/22 08:28:27;;;;;;;10.73;3.03;;;;;;;19.92;100.00;100526.53;5004148;23;20235;-83
2023/07/22 08:30:55;;;;;;;41.75;7.90;;;;;;;20.53;100.00;100546.28;4979236;28;20219;-85
2023/07/22 08:33:23;;;;;;;8.15;2.45;;;;;;;20.82;100.00;100530.16;4967503;28;20320;-82
2023/07/22 08:36:07;;;;;;;8.05;2.47;;;;;;;20.98;100.00;100506.38;4958266;28;20236;-82
2023/07/22 08:38:34;;;;;;;7.00;2.17;;;;;;;21.14;100.00;100502.25;4962451;28;20225;-83
2023/07/22 08:41:01;;;;;;;19.52;4.35;;;;;;;21.33;100.00;100481.00;4961011;28;20272;-83
2023/07/22 08:43:28;;;;;;;7.88;2.40;;;;;;;21.54;100.00;100455.16;4968569;28;20224;-82
2023/07/22 08:46:00;;;;;;;47.47;8.43;;;;;;;21.84;100.00;100445.09;4964491;28;20231;-81
2023/07/22 08:48:30;;;;;;;7.20;2.05;;;;;;;21.49;100.00;100355.78;4970117;28;20221;-85
2023/07/22 08:51:18;;;;;;;49.63;9.93;;;;;;;21.69;100.00;100352.34;4956765;28;20221;-81
2023/07/22 08:53:46;;;;;;;20.80;4.72;;;;;;;22.13;100.00;100366.84;4966631;28;20232;-81
2023/07/22 08:56:33;;;;;;;7.03;2.08;;;;;;;21.82;100.00;100261.22;4969654;28;20233;-82
2023/07/22 08:59:00;;;;;;;39.03;7.35;;;;;;;21.75;100.00;100240.88;4953053;28;20224;-83
2023/07/22 09:01:27;;;;;;;8.40;2.30;;;;;;;21.82;100.00;100254.03;4964381;28;20311;-81
2023/07/22 09:03:56;;;;;;;36.72;8.07;;;;;;;21.93;100.00;100208.69;4960619;28;20284;-80
2023/07/22 09:06:23;;;;;;;7.05;1.92;;;;;;;22.09;100.00;100210.78;4964467;28;20550;-84
2023/07/22 09:08:52;;;;;;;41.85;7.72;;;;;;;22.30;100.00;100191.94;4961464;28;20249;-81
2023/07/22 09:11:19;;;;;;;6.38;1.70;;;;;;;22.01;100.00;100138.38;4965101;28;20237;-80
2023/07/22 09:13:47;;;;;;;29.17;6.13;;;;;;;21.91;100.00;100107.38;4951812;28;20768;-81
2023/07/22 09:16:15;;;;;;;9.65;2.42;;;;;;;22.09;100.00;100121.91;4969972;28;20232;-82
2023/07/22 09:18:42;;;;;;;6.00;1.70;;;;;;;22.41;100.00;100136.69;4943046;28;20232;-85
2023/07/22 09:21:09;;;;;;;13.57;3.35;;;;;;;23.03;100.00;100143.78;4962087;28;20242;-81
2023/07/22 09:23:37;;;;;;;7.10;1.95;;;;;;;23.43;100.00;100137.38;4965544;28;20231;-82
2023/07/22 09:26:12;;;;;;;7.88;2.45;;;;;;;24.06;100.00;100146.84;4954975;28;20279;-81
2023/07/22 09:28:52;;;;;;;12.38;3.38;;;;;;;23.77;100.00;100048.41;4960170;28;20700;-81
2023/07/22 09:31:24;;;;;;;7.05;2.10;;;;;;;24.23;100.00;99997.34;4962927;28;20232;-83
2023/07/22 09:33:55;;;;;;;55.45;10.80;;;;;;;24.47;100.00;99990.66;4955229;28;20224;-82
2023/07/22 09:36:22;;;;;;;10.20;2.65;;;;;;;24.28;100.00;99980.94;4957587;28;20244;-79
2023/07/22 09:39:02;;;;;;;47.60;10.52;;;;;;;24.48;100.00;99883.41;4954021;28;20220;-81
2023/07/22 09:41:30;;;;;;;8.55;2.40;;;;;;;24.57;100.00;99869.34;4955155;28;20233;-81
2023/07/22 09:43:57;;;;;;;41.03;9.77;;;;;;;24.47;97.25;99751.91;4955980;28;20224;-81
2023/07/22 09:46:32;;;;;;;7.60;2.08;;;;;;;24.56;100.00;99814.41;4951147;28;20235;-81
2023/07/22 09:49:07;;;;;;;53.40;9.68;;;;;;;24.52;100.00;99766.91;4952841;28;20232;-79
2023/07/22 09:51:40;;;;;;;8.55;2.15;;;;;;;24.37;100.00;99713.75;4958229;28;20314;-80
2023/07/22 09:54:30;;;;;;;10.40;2.95;;;;;;;24.31;98.97;99668.19;4951011;28;20225;-80
2023/07/22 09:56:58;;;;;;;65.78;14.50;;;;;;;24.04;97.36;99584.22;4944035;28;20261;-82
2023/07/22 09:59:29;;;;;;;7.45;2.15;;;;;;;23.96;100.00;99635.09;4959574;28;20248;-80
2023/07/22 10:01:58;;;;;;;48.92;9.90;;;;;;;24.34;96.47;99605.84;4954349;28;20696;-79
2023/07/22 10:04:28;;;;;;;8.80;2.47;;;;;;;24.15;96.63;99567.34;4959852;28;20303;-80
2023/07/22 10:06:55;;;;;;;46.20;10.15;;;;;;;24.81;96.81;99646.19;4946905;28;20275;-80
2023/07/22 10:09:24;;;;;;;6.90;2.00;;;;;;;24.71;97.02;99598.19;4954736;28;20224;-81
2023/07/22 10:11:51;;;;;;;34.97;7.63;;;;;;;24.29;95.22;99501.72;4955574;28;20228;-81
2023/07/22 10:14:18;;;;;;;5.70;1.65;;;;;;;24.20;95.64;99476.09;4948712;28;20224;-82
2023/07/22 10:16:45;;;;;;;24.92;5.85;;;;;;;23.89;94.55;99409.63;4965302;28;20581;-84
2023/07/22 10:19:12;;;;;;;5.65;1.83;;;;;;;23.88;96.72;99427.66;4961143;28;20240;-79
2023/07/22 10:21:39;;;;;;;11.05;3.05;;;;;;;23.74;98.00;99408.72;4946713;28;20286;-82
2023/07/22 10:24:09;;;;;;;9.43;2.85;;;;;;;23.98;98.52;99443.28;4941418;28;20247;-81
2023/07/22 10:26:37;;;;;;;9.75;3.05;;;;;;;24.05;96.45;99409.53;4948902;28;20236;-81
2023/07/22 10:29:13;;;;;;;9.00;2.40;;;;;;;24.85;94.88;99492.75;4950763;28;20267;-80
2023/07/22 10:31:40;;;;;;;9.75;2.70;;;;;;;24.96;89.34;99411.78;4956656;28;20226;-79
2023/07/22 10:34:08;;;;;;;6.72;2.00;;;;;;;24.66;85.72;99308.31;4920791;28;20244;-79
2023/07/22 10:36:35;;;;;;;8.90;2.33;;;;;;;24.79;85.82;99317.38;4953976;28;20224;-78
2023/07/22 10:39:02;;;;;;;10.77;3.20;;;;;;;24.47;87.92;99269.00;4949627;28;20266;-81
2023/07/22 10:41:32;;;;;;;19.20;4.38;;;;;;;24.27;90.17;99272.16;4954450;28;20237;-81
2023/07/22 10:44:00;;;;;;;52.17;10.50;;;;;;;24.04;87.95;99183.63;4948561;28;20236;-80
2023/07/22 10:46:43;;;;;;;6.45;1.85;;;;;;;23.88;87.41;99141.44;4959378;28;20300;-81
2023/07/22 10:49:16;;;;;;;7.07;2.25;;;;;;;24.26;94.06;99254.19;4951831;28;20591;-82
2023/07/22 10:51:50;;;;;;;11.40;3.10;;;;;;;24.46;92.67;99252.91;4950377;28;20235;-82
2023/07/22 10:54:35;;;;;;;8.65;2.60;;;;;;;24.63;89.64;99222.03;4956120;28;20336;-80
2023/07/22 10:57:04;;;;;;;8.45;2.55;;;;;;;24.74;82.04;99149.19;4950807;28;20244;-80
2023/07/22 10:59:34;;;;;;;8.23;2.25;;;;;;;25.59;77.91;99194.53;4961362;28;20220;-79
2023/07/22 11:02:00;;;;;;;51.78;8.48;;;;;;;25.53;71.61;99078.59;4950231;28;20242;-83
2023/07/22 11:04:30;;;;;;;9.45;2.88;;;;;;;25.91;74.40;99146.16;4954432;28;20224;-79
2023/07/22 11:07:30;;;;;;;6.18;1.92;;;;;;;25.62;68.53;99001.25;4920506;28;20251;-78
2023/07/22 11:09:57;;;;;;;40.38;7.63;;;;;;;24.99;68.74;98881.50;4951107;28;20228;-78
2023/07/22 11:12:25;;;;;;;6.47;1.98;;;;;;;24.82;70.08;98868.34;4956909;28;20255;-79
2023/07/22 11:15:05;;;;;;;47.60;10.73;;;;;;;24.98;73.05;98908.66;4950639;28;20332;-79
2023/07/22 11:17:33;;;;;;;7.85;2.50;;;;;;;25.47;74.50;98987.03;4955105;28;20231;-80
2023/07/22 11:20:01;;;;;;;14.35;4.05;;;;;;;25.81;71.89;98986.22;4951176;28;20279;-82
2023/07/22 11:22:29;;;;;;;5.50;1.75;;;;;;;25.92;65.88;98896.00;4958371;28;20237;-83
2023/07/22 11:24:58;;;;;;;18.23;4.95;;;;;;;26.62;68.07;98996.19;4954871;28;20236;-83
2023/07/22 11:27:25;;;;;;;6.13;1.85;;;;;;;26.21;61.36;98798.06;4956596;28;20296;-81
2023/07/22 11:29:52;;;;;;;44.85;9.48;;;;;;;25.98;65.86;98810.72;4954509;28;20224;-81
2023/07/22 11:32:23;;;;;;;7.05;2.30;;;;;;;26.19;61.90;98779.22;4961158;28;20240;-82
2023/07/22 11:34:53;;;;;;;35.17;7.38;;;;;;;27.17;59.49;98863.34;4953435;28;20220;-79
2023/07/22 11:37:19;;;;;;;7.65;2.47;;;;;;;26.94;56.96;98760.31;4965149;28;20577;-80
2023/07/22 11:39:46;;;;;;;12.35;3.13;;;;;;;26.65;56.05;98672.41;4951915;28;20244;-79
2023/07/22 11:42:13;;;;;;;5.93;1.88;;;;;;;26.72;59.57;98722.44;4958636;28;20288;-80
2023/07/22 11:44:41;;;;;;;6.18;1.92;;;;;;;26.98;57.69;98715.69;4960150;28;20224;-82
2023/07/22 11:47:08;;;;;;;7.75;2.25;;;;;;;27.36;56.85;98734.09;4953665;28;20315;-80
2023/07/22 11:49:40;;;;;;;7.72;2.33;;;;;;;27.51;57.26;98739.19;4965304;28;20236;-80
2023/07/22 11:52:08;;;;;;;6.93;1.95;;;;;;;27.63;57.07;98733.56;4956862;28;20240;-80
2023/07/22 11:54:38;;;;;;;8.27;2.22;;;;;;;27.49;55.01;98643.44;4966724;28;20228;-80
2023/07/22 11:57:18;;;;;;;10.38;3.00;;;;;;;27.44;56.19;98638.44;4954208;28;20232;-80
2023/07/22 11:59:45;;;;;;;11.20;2.90;;;;;;;26.85;57.41;98559.53;4955435;28;20531;-81
2023/07/22 12:02:19;;;;;;;8.30;2.38;;;;;;;27.15;57.50;98599.41;4963986;28;20266;-78
2023/07/22 12:05:05;;;;;;;14.18;3.85;;;;;;;27.25;55.78;98568.59;4957235;28;20351;-79
2023/07/22 12:07:34;;;;;;;7.97;2.13;;;;;;;27.62;54.68;98612.38;4963854;28;20283;-78
2023/07/22 12:10:03;;;;;;;19.88;5.25;;;;;;;27.99;52.14;98579.16;4955776;28;20236;-80
2023/07/22 12:12:38;;;;;;;6.47;1.85;;;;;;;27.81;53.13;98542.81;4967503;28;20228;-79
2023/07/22 12:15:17;;;;;;;7.70;2.05;;;;;;;27.91;49.89;98475.78;4957469;28;20227;-80
2023/07/22 12:17:53;;;;;;;9.43;2.60;;;;;;;27.50;48.94;98358.25;4960848;28;20263;-80
2023/07/22 12:20:26;;;;;;;8.57;2.47;;;;;;;27.88;53.02;98514.94;4964223;28;20228;-81
2023/07/22 12:22:56;;;;;;;11.15;3.05;;;;;;;27.41;51.37;98406.13;4959921;28;20239;-80
2023/07/22 12:25:23;;;;;;;10.68;2.83;;;;;;;27.90;53.59;98507.50;4963831;28;20224;-80
2023/07/22 12:27:50;;;;;;;19.50;4.97;;;;;;;28.03;48.29;98425.72;4956398;28;20236;-79
2023/07/22 12:30:17;;;;;;;8.52;2.10;;;;;;;28.25;47.79;98438.16;4962053;28;20239;-80
2023/07/22 12:32:47;;;;;;;19.98;4.78;;;;;;;27.37;46.82;98240.97;4957032;28;20240;-81
2023/07/22 12:35:14;;;;;;;7.97;2.15;;;;;;;27.22;50.17;98324.66;4962336;28;20260;-80
2023/07/22 12:37:41;;;;;;;10.85;2.88;;;;;;;27.12;50.88;98325.66;4950301;28;20247;-80
2023/07/22 12:40:08;;;;;;;8.80;2.33;;;;;;;27.90;49.67;98415.16;4962452;28;20231;-81
2023/07/22 12:42:36;;;;;;;8.45;2.08;;;;;;;27.86;51.19;98430.03;4958325;28;20232;-81
2023/07/22 12:45:04;;;;;;;9.52;2.45;;;;;;;27.36;48.33;98267.28;4959074;28;20244;-80
2023/07/22 12:47:31;;;;;;;7.82;2.03;;;;;;;27.25;49.11;98266.53;4967200;28;20240;-79
2023/07/22 12:49:58;;;;;;;36.15;8.02;;;;;;;27.89;49.92;98386.28;4957647;28;20220;-80
2023/07/22 12:52:25;;;;;;;5.65;1.70;;;;;;;27.98;48.53;98354.66;4964555;28;20232;-78
2023/07/22 12:54:52;;;;;;;45.10;9.45;;;;;;;28.35;50.73;98449.84;4957557;28;20279;-79
2023/07/22 12:57:19;;;;;;;6.85;2.10;;;;;;;28.23;46.76;98331.44;4959805;28;20312;-80
2023/07/22 12:59:46;;;;;;;32.75;6.72;;;;;;;28.50;46.02;98319.75;4953382;28;20302;-81
2023/07/22 13:02:15;;;;;;;6.38;1.88;;;;;;;28.38;45.88;98288.31;4960849;28;20243;-80
2023/07/22 13:04:43;;;;;;;6.88;2.00;;;;;;;27.91;45.80;98206.84;4960041;28;20680;-89
2023/07/22 13:07:11;;;;;;;6.28;2.15;;;;;;;27.64;48.80;98243.81;4965214;28;20237;-80
2023/07/22 13:09:38;;;;;;;7.70;2.20;;;;;;;28.47;45.98;98309.16;4962163;28;20232;-82
2023/07/22 13:12:05;;;;;;;6.50;1.80;;;;;;;28.42;45.30;98259.84;4956556;28;20240;-80
2023/07/22 13:14:32;;;;;;;8.55;2.33;;;;;;;28.56;45.24;98272.91;4965331;28;20232;-80
2023/07/22 13:16:59;;;;;;;41.42;7.88;;;;;;;28.36;46.87;98274.88;4953498;28;20717;-80
2023/07/22 13:19:26;;;;;;;6.85;2.13;;;;;;;28.64;46.79;98313.84;4962439;28;20224;-83
2023/07/22 13:21:53;;;;;;;39.63;8.43;;;;;;;27.99;46.07;98174.34;4957333;28;20244;-79
2023/07/22 13:24:21;;;;;;;11.02;3.58;;;;;;;27.53;49.30;98199.66;4953738;28;20307;-80
2023/07/22 13:26:48;;;;;;;40.03;8.00;;;;;;;27.59;49.45;98243.38;4953884;28;20672;-79
2023/07/22 13:29:15;;;;;;;7.50;2.25;;;;;;;28.07;48.24;98293.16;4960215;28;20240;-82
2023/07/22 13:31:41;;;;;;;7.25;2.03;;;;;;;28.57;48.32;98362.50;4961743;28;20228;-86